sensor_id;sensor_type;location;lat;lon;timestamp;P1;P2;P0
76025;PMS5003;64721;51.084;17.242;2022-11-15T00:00:40;53;46;
76025;PMS5003;64721;51.084;17.242;2022-11-15T00:03:08;45;42;
76025;PMS5003;64721;51.084;17.242;2022-11-15T00:05:06;51;48;
76025;PMS5003;64721;51.084;17.242;2022-11-15T00:07:04;50;48;
76025;PMS5003;64721;51.084;17.242;2022-11-15T00:08:48;52;49;
76025;PMS5003;64721;51.084;17.242;2022-11-15T00:10:47;45;43;
76025;PMS5003;64721;51.084;17.242;2022-11-15T00:12:51;61;55;
76025;PMS5003;64721;51.084;17.242;2022-11-15T00:14:48;61;59;
76025;PMS5003;64721;51.084;17.242;2022-11-15T00:16:46;45;42;
76025;PMS5003;64721;51.084;17.242;2022-11-15T00:18:48;53;47;
76025;PMS5003;64721;51.084;17.242;2022-11-15T00:21:02;50;48;
76025;PMS5003;64721;51.084;17.242;2022-11-15T00:22:47;48;47;
76025;PMS5003;64721;51.084;17.242;2022-11-15T00:24:43;50;46;
76025;PMS5003;64721;51.084;17.242;2022-11-15T00:26:31;54;48;
76025;PMS5003;64721;51.084;17.242;2022-11-15T00:28:43;55;49;
76025;PMS5003;64721;51.084;17.242;2022-11-15T00:30:41;51;48;
76025;PMS5003;64721;51.084;17.242;2022-11-15T00:32:37;51;49;
76025;PMS5003;64721;51.084;17.242;2022-11-15T00:34:35;50;46;
76025;PMS5003;64721;51.084;17.242;2022-11-15T00:36:20;49;46;
76025;PMS5003;64721;51.084;17.242;2022-11-15T00:40:00;47;42;
76025;PMS5003;64721;51.084;17.242;2022-11-15T00:41:47;47;42;
76025;PMS5003;64721;51.084;17.242;2022-11-15T00:43:44;48;43;
76025;PMS5003;64721;51.084;17.242;2022-11-15T00:45:28;48;43;
76025;PMS5003;64721;51.084;17.242;2022-11-15T00:47:26;63;57;
76025;PMS5003;64721;51.084;17.242;2022-11-15T00:49:24;56;51;
76025;PMS5003;64721;51.084;17.242;2022-11-15T00:51:09;57;53;
76025;PMS5003;64721;51.084;17.242;2022-11-15T00:53:35;51;46;
76025;PMS5003;64721;51.084;17.242;2022-11-15T00:55:33;48;44;
76025;PMS5003;64721;51.084;17.242;2022-11-15T01:01:13;49;45;
76025;PMS5003;64721;51.084;17.242;2022-11-15T01:02:57;52;47;
76025;PMS5003;64721;51.084;17.242;2022-11-15T01:05:38;63;61;
76025;PMS5003;64721;51.084;17.242;2022-11-15T01:07:22;54;51;
76025;PMS5003;64721;51.084;17.242;2022-11-15T01:09:18;48;47;
76025;PMS5003;64721;51.084;17.242;2022-11-15T01:11:06;48;47;
76025;PMS5003;64721;51.084;17.242;2022-11-15T01:13:19;37;33;
76025;PMS5003;64721;51.084;17.242;2022-11-15T01:15:03;37;33;
76025;PMS5003;64721;51.084;17.242;2022-11-15T01:17:01;52;47;
76025;PMS5003;64721;51.084;17.242;2022-11-15T01:19:05;63;56;
76025;PMS5003;64721;51.084;17.242;2022-11-15T01:21:03;45;43;
76025;PMS5003;64721;51.084;17.242;2022-11-15T01:23:01;44;42;
76025;PMS5003;64721;51.084;17.242;2022-11-15T01:24:48;45;43;
76025;PMS5003;64721;51.084;17.242;2022-11-15T01:28:28;48;46;
76025;PMS5003;64721;51.084;17.242;2022-11-15T01:30:13;49;48;
76025;PMS5003;64721;51.084;17.242;2022-11-15T01:32:27;44;43;
76025;PMS5003;64721;51.084;17.242;2022-11-15T01:34:12;44;43;
76025;PMS5003;64721;51.084;17.242;2022-11-15T01:36:11;54;45;
76025;PMS5003;64721;51.084;17.242;2022-11-15T01:38:09;53;49;
76025;PMS5003;64721;51.084;17.242;2022-11-15T01:40:21;67;64;
76025;PMS5003;64721;51.084;17.242;2022-11-15T01:42:18;50;48;
76025;PMS5003;64721;51.084;17.242;2022-11-15T01:45:07;48;46;
76025;PMS5003;64721;51.084;17.242;2022-11-15T01:47:03;48;46;
76025;PMS5003;64721;51.084;17.242;2022-11-15T01:49:30;57;54;
76025;PMS5003;64721;51.084;17.242;2022-11-15T01:51:16;57;54;
76025;PMS5003;64721;51.084;17.242;2022-11-15T01:53:02;52;48;
76025;PMS5003;64721;51.084;17.242;2022-11-15T01:55:18;44;39;
76025;PMS5003;64721;51.084;17.242;2022-11-15T01:57:07;44;39;
76025;PMS5003;64721;51.084;17.242;2022-11-15T01:59:34;57;54;
76025;PMS5003;64721;51.084;17.242;2022-11-15T02:01:36;56;53;
76025;PMS5003;64721;51.084;17.242;2022-11-15T02:04:17;43;42;
76025;PMS5003;64721;51.084;17.242;2022-11-15T02:06:03;43;42;
76025;PMS5003;64721;51.084;17.242;2022-11-15T02:07:51;46;45;
76025;PMS5003;64721;51.084;17.242;2022-11-15T02:09:36;51;47;
76025;PMS5003;64721;51.084;17.242;2022-11-15T02:11:33;42;41;
76025;PMS5003;64721;51.084;17.242;2022-11-15T02:13:33;46;43;
76025;PMS5003;64721;51.084;17.242;2022-11-15T02:15:48;39;38;
76025;PMS5003;64721;51.084;17.242;2022-11-15T02:20:42;60;57;
76025;PMS5003;64721;51.084;17.242;2022-11-15T02:22:41;60;56;
76025;PMS5003;64721;51.084;17.242;2022-11-15T02:29:22;49;40;
76025;PMS5003;64721;51.084;17.242;2022-11-15T02:31:26;43;42;
76025;PMS5003;64721;51.084;17.242;2022-11-15T02:33:48;41;39;
76025;PMS5003;64721;51.084;17.242;2022-11-15T02:35:52;47;46;
76025;PMS5003;64721;51.084;17.242;2022-11-15T02:37:59;44;39;
76025;PMS5003;64721;51.084;17.242;2022-11-15T02:39:51;44;39;
76025;PMS5003;64721;51.084;17.242;2022-11-15T02:41:41;47;45;
76025;PMS5003;64721;51.084;17.242;2022-11-15T02:45:50;39;36;
76025;PMS5003;64721;51.084;17.242;2022-11-15T02:47:54;40;39;
76025;PMS5003;64721;51.084;17.242;2022-11-15T02:49:55;47;44;
76025;PMS5003;64721;51.084;17.242;2022-11-15T02:51:55;49;40;
76025;PMS5003;64721;51.084;17.242;2022-11-15T02:54:21;51;47;
76025;PMS5003;64721;51.084;17.242;2022-11-15T02:56:24;52;47;
76025;PMS5003;64721;51.084;17.242;2022-11-15T02:58:35;52;46;
76025;PMS5003;64721;51.084;17.242;2022-11-15T03:00:38;52;44;
76025;PMS5003;64721;51.084;17.242;2022-11-15T03:02:48;45;38;
76025;PMS5003;64721;51.084;17.242;2022-11-15T03:04:49;45;38;
76025;PMS5003;64721;51.084;17.242;2022-11-15T03:06:57;58;52;
76025;PMS5003;64721;51.084;17.242;2022-11-15T03:09:08;46;43;
76025;PMS5003;64721;51.084;17.242;2022-11-15T03:11:11;52;47;
76025;PMS5003;64721;51.084;17.242;2022-11-15T03:13:13;55;52;
76025;PMS5003;64721;51.084;17.242;2022-11-15T03:15:18;42;38;
76025;PMS5003;64721;51.084;17.242;2022-11-15T03:17:23;42;38;
76025;PMS5003;64721;51.084;17.242;2022-11-15T03:23:12;42;39;
76025;PMS5003;64721;51.084;17.242;2022-11-15T03:25:15;58;53;
76025;PMS5003;64721;51.084;17.242;2022-11-15T03:29:31;48;43;
76025;PMS5003;64721;51.084;17.242;2022-11-15T03:31:47;36;35;
76025;PMS5003;64721;51.084;17.242;2022-11-15T03:33:49;45;41;
76025;PMS5003;64721;51.084;17.242;2022-11-15T03:35:51;46;44;
76025;PMS5003;64721;51.084;17.242;2022-11-15T03:37:54;44;43;
76025;PMS5003;64721;51.084;17.242;2022-11-15T03:39:41;46;43;
76025;PMS5003;64721;51.084;17.242;2022-11-15T03:41:33;45;43;
76025;PMS5003;64721;51.084;17.242;2022-11-15T03:43:39;44;39;
76025;PMS5003;64721;51.084;17.242;2022-11-15T03:45:43;45;43;
76025;PMS5003;64721;51.084;17.242;2022-11-15T03:47:35;45;42;
76025;PMS5003;64721;51.084;17.242;2022-11-15T03:49:40;49;49;
76025;PMS5003;64721;51.084;17.242;2022-11-15T03:51:41;43;40;
76025;PMS5003;64721;51.084;17.242;2022-11-15T03:53:53;41;37;
76025;PMS5003;64721;51.084;17.242;2022-11-15T03:56:05;52;49;
76025;PMS5003;64721;51.084;17.242;2022-11-15T03:58:02;61;56;
76025;PMS5003;64721;51.084;17.242;2022-11-15T04:00:16;49;45;
76025;PMS5003;64721;51.084;17.242;2022-11-15T04:02:15;51;45;
76025;PMS5003;64721;51.084;17.242;2022-11-15T04:04:13;42;39;
76025;PMS5003;64721;51.084;17.242;2022-11-15T04:06:25;51;48;
76025;PMS5003;64721;51.084;17.242;2022-11-15T04:08:09;51;48;
76025;PMS5003;64721;51.084;17.242;2022-11-15T04:10:07;48;42;
76025;PMS5003;64721;51.084;17.242;2022-11-15T04:12:06;55;47;
76025;PMS5003;64721;51.084;17.242;2022-11-15T04:13:50;53;46;
76025;PMS5003;64721;51.084;17.242;2022-11-15T04:15:34;47;44;
76025;PMS5003;64721;51.084;17.242;2022-11-15T04:17:47;52;49;
76025;PMS5003;64721;51.084;17.242;2022-11-15T04:19:59;42;38;
76025;PMS5003;64721;51.084;17.242;2022-11-15T04:21:44;45;40;
76025;PMS5003;64721;51.084;17.242;2022-11-15T04:23:42;39;39;
76025;PMS5003;64721;51.084;17.242;2022-11-15T04:25:40;53;50;
76025;PMS5003;64721;51.084;17.242;2022-11-15T04:27:24;52;49;
76025;PMS5003;64721;51.084;17.242;2022-11-15T04:29:21;50;49;
76025;PMS5003;64721;51.084;17.242;2022-11-15T04:31:19;41;36;
76025;PMS5003;64721;51.084;17.242;2022-11-15T04:33:19;41;39;
76025;PMS5003;64721;51.084;17.242;2022-11-15T04:35:30;43;39;
76025;PMS5003;64721;51.084;17.242;2022-11-15T04:37:14;40;38;
76025;PMS5003;64721;51.084;17.242;2022-11-15T04:39:13;42;38;
76025;PMS5003;64721;51.084;17.242;2022-11-15T04:41:11;35;34;
76025;PMS5003;64721;51.084;17.242;2022-11-15T04:45:53;45;40;
76025;PMS5003;64721;51.084;17.242;2022-11-15T04:47:37;46;41;
76025;PMS5003;64721;51.084;17.242;2022-11-15T04:49:41;49;44;
76025;PMS5003;64721;51.084;17.242;2022-11-15T04:51:39;40;37;
76025;PMS5003;64721;51.084;17.242;2022-11-15T04:53:32;40;37;
76025;PMS5003;64721;51.084;17.242;2022-11-15T04:57:30;51;48;
76025;PMS5003;64721;51.084;17.242;2022-11-15T04:59:30;46;39;
76025;PMS5003;64721;51.084;17.242;2022-11-15T05:01:59;56;46;
76025;PMS5003;64721;51.084;17.242;2022-11-15T05:04:12;46;43;
76025;PMS5003;64721;51.084;17.242;2022-11-15T05:05:56;45;42;
76025;PMS5003;64721;51.084;17.242;2022-11-15T05:07:40;44;39;
76025;PMS5003;64721;51.084;17.242;2022-11-15T05:10:04;73;69;
76025;PMS5003;64721;51.084;17.242;2022-11-15T05:12:16;63;55;
76025;PMS5003;64721;51.084;17.242;2022-11-15T05:14:13;72;59;
76025;PMS5003;64721;51.084;17.242;2022-11-15T05:16:11;57;55;
76025;PMS5003;64721;51.084;17.242;2022-11-15T05:18:08;69;59;
76025;PMS5003;64721;51.084;17.242;2022-11-15T05:20:15;55;52;
76025;PMS5003;64721;51.084;17.242;2022-11-15T05:22:13;66;57;
76025;PMS5003;64721;51.084;17.242;2022-11-15T05:24:11;57;52;
76025;PMS5003;64721;51.084;17.242;2022-11-15T05:26:24;50;49;
76025;PMS5003;64721;51.084;17.242;2022-11-15T05:28:22;58;52;
76025;PMS5003;64721;51.084;17.242;2022-11-15T05:30:15;56;51;
76025;PMS5003;64721;51.084;17.242;2022-11-15T05:32:16;54;49;
76025;PMS5003;64721;51.084;17.242;2022-11-15T05:34:33;46;43;
76025;PMS5003;64721;51.084;17.242;2022-11-15T05:36:34;47;37;
76025;PMS5003;64721;51.084;17.242;2022-11-15T05:38:20;47;39;
76025;PMS5003;64721;51.084;17.242;2022-11-15T05:40:32;59;50;
76025;PMS5003;64721;51.084;17.242;2022-11-15T05:42:31;53;46;
76025;PMS5003;64721;51.084;17.242;2022-11-15T05:44:22;53;46;
76025;PMS5003;64721;51.084;17.242;2022-11-15T05:46:20;50;47;
76025;PMS5003;64721;51.084;17.242;2022-11-15T05:48:29;58;50;
76025;PMS5003;64721;51.084;17.242;2022-11-15T05:50:42;57;49;
76025;PMS5003;64721;51.084;17.242;2022-11-15T05:55:02;50;44;
76025;PMS5003;64721;51.084;17.242;2022-11-15T05:57:08;51;45;
76025;PMS5003;64721;51.084;17.242;2022-11-15T05:58:59;50;44;
76025;PMS5003;64721;51.084;17.242;2022-11-15T06:00:57;47;42;
76025;PMS5003;64721;51.084;17.242;2022-11-15T06:03:15;45;40;
76025;PMS5003;64721;51.084;17.242;2022-11-15T06:05:08;41;37;
76025;PMS5003;64721;51.084;17.242;2022-11-15T06:07:34;52;49;
76025;PMS5003;64721;51.084;17.242;2022-11-15T06:09:18;52;49;
76025;PMS5003;64721;51.084;17.242;2022-11-15T06:11:16;60;52;
76025;PMS5003;64721;51.084;17.242;2022-11-15T06:13:13;58;52;
76025;PMS5003;64721;51.084;17.242;2022-11-15T06:14:57;57;52;
76025;PMS5003;64721;51.084;17.242;2022-11-15T06:16:56;52;43;
76025;PMS5003;64721;51.084;17.242;2022-11-15T06:19:38;42;38;
76025;PMS5003;64721;51.084;17.242;2022-11-15T06:21:22;42;38;
76025;PMS5003;64721;51.084;17.242;2022-11-15T06:23:06;54;48;
76025;PMS5003;64721;51.084;17.242;2022-11-15T06:25:03;68;65;
76025;PMS5003;64721;51.084;17.242;2022-11-15T06:27:02;67;58;
76025;PMS5003;64721;51.084;17.242;2022-11-15T06:29:00;47;45;
76025;PMS5003;64721;51.084;17.242;2022-11-15T06:31:01;54;50;
76025;PMS5003;64721;51.084;17.242;2022-11-15T06:33:43;42;36;
76025;PMS5003;64721;51.084;17.242;2022-11-15T06:35:53;49;44;
76025;PMS5003;64721;51.084;17.242;2022-11-15T06:38:08;51;47;
76025;PMS5003;64721;51.084;17.242;2022-11-15T06:40:08;60;52;
76025;PMS5003;64721;51.084;17.242;2022-11-15T06:42:07;51;49;
76025;PMS5003;64721;51.084;17.242;2022-11-15T06:44:05;66;60;
76025;PMS5003;64721;51.084;17.242;2022-11-15T06:45:49;65;59;
76025;PMS5003;64721;51.084;17.242;2022-11-15T06:47:34;62;52;
76025;PMS5003;64721;51.084;17.242;2022-11-15T06:49:18;59;54;
76025;PMS5003;64721;51.084;17.242;2022-11-15T06:51:16;61;58;
76025;PMS5003;64721;51.084;17.242;2022-11-15T06:53:13;56;54;
76025;PMS5003;64721;51.084;17.242;2022-11-15T06:55:10;55;48;
76025;PMS5003;64721;51.084;17.242;2022-11-15T06:56:55;53;48;
76025;PMS5003;64721;51.084;17.242;2022-11-15T06:58:52;54;49;
76025;PMS5003;64721;51.084;17.242;2022-11-15T07:01:05;46;41;
76025;PMS5003;64721;51.084;17.242;2022-11-15T07:03:04;49;46;
76025;PMS5003;64721;51.084;17.242;2022-11-15T07:05:02;48;41;
76025;PMS5003;64721;51.084;17.242;2022-11-15T07:07:15;61;57;
76025;PMS5003;64721;51.084;17.242;2022-11-15T07:09:13;52;48;
76025;PMS5003;64721;51.084;17.242;2022-11-15T07:11:12;60;56;
76025;PMS5003;64721;51.084;17.242;2022-11-15T07:13:10;61;56;
76025;PMS5003;64721;51.084;17.242;2022-11-15T07:14:54;66;58;
76025;PMS5003;64721;51.084;17.242;2022-11-15T07:16:38;56;52;
76025;PMS5003;64721;51.084;17.242;2022-11-15T07:18:42;74;69;
76025;PMS5003;64721;51.084;17.242;2022-11-15T07:22:35;77;69;
76025;PMS5003;64721;51.084;17.242;2022-11-15T07:24:33;80;72;
76025;PMS5003;64721;51.084;17.242;2022-11-15T07:26:17;75;70;
76025;PMS5003;64721;51.084;17.242;2022-11-15T07:28:13;57;53;
76025;PMS5003;64721;51.084;17.242;2022-11-15T07:30:13;66;62;
76025;PMS5003;64721;51.084;17.242;2022-11-15T07:32:24;70;63;
76025;PMS5003;64721;51.084;17.242;2022-11-15T07:34:37;51;48;
76025;PMS5003;64721;51.084;17.242;2022-11-15T07:38:54;66;61;
76025;PMS5003;64721;51.084;17.242;2022-11-15T07:40:55;50;46;
76025;PMS5003;64721;51.084;17.242;2022-11-15T07:42:39;52;48;
76025;PMS5003;64721;51.084;17.242;2022-11-15T07:44:23;65;63;
76025;PMS5003;64721;51.084;17.242;2022-11-15T07:46:41;52;50;
76025;PMS5003;64721;51.084;17.242;2022-11-15T07:48:27;52;50;
76025;PMS5003;64721;51.084;17.242;2022-11-15T07:52:18;52;46;
76025;PMS5003;64721;51.084;17.242;2022-11-15T07:54:02;52;46;
76025;PMS5003;64721;51.084;17.242;2022-11-15T07:56:16;51;46;
76025;PMS5003;64721;51.084;17.242;2022-11-15T07:58:14;54;52;
76025;PMS5003;64721;51.084;17.242;2022-11-15T07:59:58;50;50;
76025;PMS5003;64721;51.084;17.242;2022-11-15T08:01:55;42;36;
76025;PMS5003;64721;51.084;17.242;2022-11-15T08:03:46;42;36;
76025;PMS5003;64721;51.084;17.242;2022-11-15T08:05:49;51;48;
76025;PMS5003;64721;51.084;17.242;2022-11-15T08:07:34;51;48;
76025;PMS5003;64721;51.084;17.242;2022-11-15T08:09:31;60;53;
76025;PMS5003;64721;51.084;17.242;2022-11-15T08:11:15;60;53;
76025;PMS5003;64721;51.084;17.242;2022-11-15T08:13:04;47;43;
76025;PMS5003;64721;51.084;17.242;2022-11-15T08:14:48;56;50;
76025;PMS5003;64721;51.084;17.242;2022-11-15T08:16:46;52;51;
76025;PMS5003;64721;51.084;17.242;2022-11-15T08:18:30;52;50;
76025;PMS5003;64721;51.084;17.242;2022-11-15T08:20:42;54;47;
76025;PMS5003;64721;51.084;17.242;2022-11-15T08:22:41;59;54;
76025;PMS5003;64721;51.084;17.242;2022-11-15T08:24:39;68;61;
76025;PMS5003;64721;51.084;17.242;2022-11-15T08:26:51;61;57;
76025;PMS5003;64721;51.084;17.242;2022-11-15T08:28:53;44;40;
76025;PMS5003;64721;51.084;17.242;2022-11-15T08:30:51;62;57;
76025;PMS5003;64721;51.084;17.242;2022-11-15T08:32:49;55;54;
76025;PMS5003;64721;51.084;17.242;2022-11-15T08:34:33;57;54;
76025;PMS5003;64721;51.084;17.242;2022-11-15T08:36:33;52;44;
76025;PMS5003;64721;51.084;17.242;2022-11-15T08:38:45;61;56;
76025;PMS5003;64721;51.084;17.242;2022-11-15T08:40:44;39;36;
76025;PMS5003;64721;51.084;17.242;2022-11-15T08:42:28;38;35;
76025;PMS5003;64721;51.084;17.242;2022-11-15T08:44:32;48;46;
76025;PMS5003;64721;51.084;17.242;2022-11-15T08:46:32;51;48;
76025;PMS5003;64721;51.084;17.242;2022-11-15T08:48:31;55;49;
76025;PMS5003;64721;51.084;17.242;2022-11-15T08:50:15;55;49;
76025;PMS5003;64721;51.084;17.242;2022-11-15T08:52:13;51;45;
76025;PMS5003;64721;51.084;17.242;2022-11-15T08:54:23;42;41;
76025;PMS5003;64721;51.084;17.242;2022-11-15T08:56:20;48;46;
76025;PMS5003;64721;51.084;17.242;2022-11-15T08:58:05;49;47;
76025;PMS5003;64721;51.084;17.242;2022-11-15T08:59:49;48;46;
76025;PMS5003;64721;51.084;17.242;2022-11-15T09:01:33;48;43;
76025;PMS5003;64721;51.084;17.242;2022-11-15T09:03:45;36;34;
76025;PMS5003;64721;51.084;17.242;2022-11-15T09:05:30;38;36;
76025;PMS5003;64721;51.084;17.242;2022-11-15T09:07:28;40;38;
76025;PMS5003;64721;51.084;17.242;2022-11-15T09:09:12;39;36;
76025;PMS5003;64721;51.084;17.242;2022-11-15T09:11:39;39;37;
76025;PMS5003;64721;51.084;17.242;2022-11-15T09:13:38;46;40;
76025;PMS5003;64721;51.084;17.242;2022-11-15T09:15:22;45;38;
76025;PMS5003;64721;51.084;17.242;2022-11-15T09:17:24;44;43;
76025;PMS5003;64721;51.084;17.242;2022-11-15T09:19:09;50;46;
76025;PMS5003;64721;51.084;17.242;2022-11-15T09:21:07;48;42;
76025;PMS5003;64721;51.084;17.242;2022-11-15T09:23:04;48;42;
76025;PMS5003;64721;51.084;17.242;2022-11-15T09:25:03;42;40;
76025;PMS5003;64721;51.084;17.242;2022-11-15T09:26:47;42;40;
76025;PMS5003;64721;51.084;17.242;2022-11-15T09:28:48;41;39;
76025;PMS5003;64721;51.084;17.242;2022-11-15T09:30:46;41;39;
76025;PMS5003;64721;51.084;17.242;2022-11-15T09:33:00;43;42;
76025;PMS5003;64721;51.084;17.242;2022-11-15T09:35:03;44;43;
76025;PMS5003;64721;51.084;17.242;2022-11-15T09:37:08;46;44;
76025;PMS5003;64721;51.084;17.242;2022-11-15T09:39:20;46;41;
76025;PMS5003;64721;51.084;17.242;2022-11-15T09:41:51;39;38;
76025;PMS5003;64721;51.084;17.242;2022-11-15T09:44:16;39;37;
76025;PMS5003;64721;51.084;17.242;2022-11-15T09:48:55;42;41;
76025;PMS5003;64721;51.084;17.242;2022-11-15T09:51:18;41;40;
76025;PMS5003;64721;51.084;17.242;2022-11-15T09:53:08;41;39;
76025;PMS5003;64721;51.084;17.242;2022-11-15T09:55:13;39;38;
76025;PMS5003;64721;51.084;17.242;2022-11-15T09:57:15;40;37;
76025;PMS5003;64721;51.084;17.242;2022-11-15T09:59:34;46;46;
76025;PMS5003;64721;51.084;17.242;2022-11-15T10:01:52;49;47;
76025;PMS5003;64721;51.084;17.242;2022-11-15T10:04:08;48;47;
76025;PMS5003;64721;51.084;17.242;2022-11-15T10:06:08;46;41;
76025;PMS5003;64721;51.084;17.242;2022-11-15T10:08:01;45;40;
76025;PMS5003;64721;51.084;17.242;2022-11-15T10:10:04;48;47;
76025;PMS5003;64721;51.084;17.242;2022-11-15T10:12:08;39;35;
76025;PMS5003;64721;51.084;17.242;2022-11-15T10:14:01;39;35;
76025;PMS5003;64721;51.084;17.242;2022-11-15T10:16:03;34;34;
76025;PMS5003;64721;51.084;17.242;2022-11-15T10:18:32;38;37;
76025;PMS5003;64721;51.084;17.242;2022-11-15T10:20:22;38;37;
76025;PMS5003;64721;51.084;17.242;2022-11-15T10:22:21;33;31;
76025;PMS5003;64721;51.084;17.242;2022-11-15T10:24:12;30;30;
76025;PMS5003;64721;51.084;17.242;2022-11-15T10:26:10;34;33;
76025;PMS5003;64721;51.084;17.242;2022-11-15T10:28:13;29;27;
76025;PMS5003;64721;51.084;17.242;2022-11-15T10:30:01;29;27;
76025;PMS5003;64721;51.084;17.242;2022-11-15T10:32:04;21;20;
76025;PMS5003;64721;51.084;17.242;2022-11-15T10:34:12;26;24;
76025;PMS5003;64721;51.084;17.242;2022-11-15T10:36:20;27;25;
76025;PMS5003;64721;51.084;17.242;2022-11-15T10:38:21;31;28;
76025;PMS5003;64721;51.084;17.242;2022-11-15T10:40:52;28;27;
76025;PMS5003;64721;51.084;17.242;2022-11-15T10:43:20;20;20;
76025;PMS5003;64721;51.084;17.242;2022-11-15T10:45:30;32;32;
76025;PMS5003;64721;51.084;17.242;2022-11-15T10:49:20;26;25;
76025;PMS5003;64721;51.084;17.242;2022-11-15T10:51:27;37;34;
76025;PMS5003;64721;51.084;17.242;2022-11-15T10:53:29;30;29;
76025;PMS5003;64721;51.084;17.242;2022-11-15T10:55:27;30;29;
76025;PMS5003;64721;51.084;17.242;2022-11-15T10:57:28;28;26;
76025;PMS5003;64721;51.084;17.242;2022-11-15T10:59:29;22;21;
76025;PMS5003;64721;51.084;17.242;2022-11-15T11:03:42;42;41;
76025;PMS5003;64721;51.084;17.242;2022-11-15T11:05:32;42;41;
76025;PMS5003;64721;51.084;17.242;2022-11-15T11:09:34;35;30;
76025;PMS5003;64721;51.084;17.242;2022-11-15T11:14:22;24;23;
76025;PMS5003;64721;51.084;17.242;2022-11-15T11:16:16;24;23;
76025;PMS5003;64721;51.084;17.242;2022-11-15T11:18:10;30;29;
76025;PMS5003;64721;51.084;17.242;2022-11-15T11:20:09;26;25;
76025;PMS5003;64721;51.084;17.242;2022-11-15T11:22:58;31;29;
76025;PMS5003;64721;51.084;17.242;2022-11-15T11:30:42;31;30;
76025;PMS5003;64721;51.084;17.242;2022-11-15T11:32:38;32;31;
76025;PMS5003;64721;51.084;17.242;2022-11-15T11:34:53;24;22;
76025;PMS5003;64721;51.084;17.242;2022-11-15T11:37:04;22;21;
76025;PMS5003;64721;51.084;17.242;2022-11-15T11:39:24;26;26;
76025;PMS5003;64721;51.084;17.242;2022-11-15T11:41:20;26;26;
76025;PMS5003;64721;51.084;17.242;2022-11-15T11:43:27;27;26;
76025;PMS5003;64721;51.084;17.242;2022-11-15T11:45:52;30;28;
76025;PMS5003;64721;51.084;17.242;2022-11-15T11:47:46;30;28;
76025;PMS5003;64721;51.084;17.242;2022-11-15T11:50:27;15;15;
76025;PMS5003;64721;51.084;17.242;2022-11-15T11:52:29;16;15;
76025;PMS5003;64721;51.084;17.242;2022-11-15T11:54:32;17;17;
76025;PMS5003;64721;51.084;17.242;2022-11-15T11:59:21;24;24;
76025;PMS5003;64721;51.084;17.242;2022-11-15T12:01:39;28;28;
76025;PMS5003;64721;51.084;17.242;2022-11-15T12:03:48;23;22;
76025;PMS5003;64721;51.084;17.242;2022-11-15T12:05:56;23;23;
76025;PMS5003;64721;51.084;17.242;2022-11-15T12:07:59;13;12;
76025;PMS5003;64721;51.084;17.242;2022-11-15T12:10:05;13;12;
76025;PMS5003;64721;51.084;17.242;2022-11-15T12:12:00;14;13;
76025;PMS5003;64721;51.084;17.242;2022-11-15T12:14:05;20;20;
76025;PMS5003;64721;51.084;17.242;2022-11-15T12:16:12;17;16;
76025;PMS5003;64721;51.084;17.242;2022-11-15T12:18:17;15;15;
76025;PMS5003;64721;51.084;17.242;2022-11-15T12:20:19;15;15;
76025;PMS5003;64721;51.084;17.242;2022-11-15T12:22:21;21;20;
76025;PMS5003;64721;51.084;17.242;2022-11-15T12:24:25;25;24;
76025;PMS5003;64721;51.084;17.242;2022-11-15T12:26:28;14;14;
76025;PMS5003;64721;51.084;17.242;2022-11-15T12:28:40;17;15;
76025;PMS5003;64721;51.084;17.242;2022-11-15T12:30:55;17;17;
76025;PMS5003;64721;51.084;17.242;2022-11-15T12:32:48;18;18;
76025;PMS5003;64721;51.084;17.242;2022-11-15T12:34:51;15;15;
76025;PMS5003;64721;51.084;17.242;2022-11-15T12:37:06;16;15;
76025;PMS5003;64721;51.084;17.242;2022-11-15T12:41:39;14;14;
76025;PMS5003;64721;51.084;17.242;2022-11-15T12:44:10;14;13;
76025;PMS5003;64721;51.084;17.242;2022-11-15T12:46:10;13;13;
76025;PMS5003;64721;51.084;17.242;2022-11-15T12:55:36;19;19;
76025;PMS5003;64721;51.084;17.242;2022-11-15T12:57:58;16;16;
76025;PMS5003;64721;51.084;17.242;2022-11-15T13:01:51;16;16;
76025;PMS5003;64721;51.084;17.242;2022-11-15T13:11:11;14;14;
76025;PMS5003;64721;51.084;17.242;2022-11-15T13:13:46;14;14;
76025;PMS5003;64721;51.084;17.242;2022-11-15T13:16:08;14;13;
76025;PMS5003;64721;51.084;17.242;2022-11-15T13:20:21;13;12;
76025;PMS5003;64721;51.084;17.242;2022-11-15T13:22:37;14;14;
76025;PMS5003;64721;51.084;17.242;2022-11-15T13:24:37;20;18;
76025;PMS5003;64721;51.084;17.242;2022-11-15T13:26:37;20;18;
76025;PMS5003;64721;51.084;17.242;2022-11-15T13:29:26;17;17;
76025;PMS5003;64721;51.084;17.242;2022-11-15T13:31:34;18;18;
76025;PMS5003;64721;51.084;17.242;2022-11-15T13:34:02;19;19;
76025;PMS5003;64721;51.084;17.242;2022-11-15T13:35:56;19;19;
76025;PMS5003;64721;51.084;17.242;2022-11-15T13:38:17;21;20;
76025;PMS5003;64721;51.084;17.242;2022-11-15T13:42:39;19;18;
76025;PMS5003;64721;51.084;17.242;2022-11-15T13:44:38;25;22;
76025;PMS5003;64721;51.084;17.242;2022-11-15T13:46:23;26;24;
76025;PMS5003;64721;51.084;17.242;2022-11-15T13:48:40;28;26;
76025;PMS5003;64721;51.084;17.242;2022-11-15T13:50:38;31;29;
76025;PMS5003;64721;51.084;17.242;2022-11-15T13:52:39;14;14;
76025;PMS5003;64721;51.084;17.242;2022-11-15T13:54:27;14;14;
76025;PMS5003;64721;51.084;17.242;2022-11-15T13:56:31;18;18;
76025;PMS5003;64721;51.084;17.242;2022-11-15T13:58:19;18;18;
76025;PMS5003;64721;51.084;17.242;2022-11-15T14:01:05;23;22;
76025;PMS5003;64721;51.084;17.242;2022-11-15T14:03:12;30;28;
76025;PMS5003;64721;51.084;17.242;2022-11-15T14:05:23;25;24;
76025;PMS5003;64721;51.084;17.242;2022-11-15T14:07:17;25;24;
76025;PMS5003;64721;51.084;17.242;2022-11-15T14:09:30;16;15;
76025;PMS5003;64721;51.084;17.242;2022-11-15T14:11:42;19;18;
76025;PMS5003;64721;51.084;17.242;2022-11-15T14:21:15;18;14;
76025;PMS5003;64721;51.084;17.242;2022-11-15T14:23:02;18;15;
76025;PMS5003;64721;51.084;17.242;2022-11-15T14:25:21;13;13;
76025;PMS5003;64721;51.084;17.242;2022-11-15T14:27:27;13;13;
76025;PMS5003;64721;51.084;17.242;2022-11-15T14:32:51;15;14;
76025;PMS5003;64721;51.084;17.242;2022-11-15T14:34:53;18;17;
76025;PMS5003;64721;51.084;17.242;2022-11-15T14:36:39;18;17;
76025;PMS5003;64721;51.084;17.242;2022-11-15T14:39:14;16;15;
76025;PMS5003;64721;51.084;17.242;2022-11-15T14:41:16;17;17;
76025;PMS5003;64721;51.084;17.242;2022-11-15T14:43:14;20;19;
76025;PMS5003;64721;51.084;17.242;2022-11-15T14:45:15;20;20;